Time;durP1;ratioP1;P1;durP2;ratioP2;P2;SDS_P1;SDS_P2;PMS_P1;PMS_P2;Temp;Humidity;BMP_temperature;BMP_pressure;BME280_temperature;BME280_humidity;BME280_pressure;Samples;Min_cycle;Max_cycle;Signal;HPM_P1;HPM_P2
2023/07/11 00:00:14;;;;;;;2.17;1.30;;;19.20;90.30;;;;;;4991662;28;20052;-56
2023/07/11 00:02:42;;;;;;;7.40;1.70;;;19.20;91.00;;;;;;5014666;28;20116;-57
2023/07/11 00:05:08;;;;;;;5.32;1.83;;;19.20;90.90;;;;;;5016064;28;20681;-56
2023/07/11 00:07:33;;;;;;;4.43;1.35;;;19.20;91.20;;;;;;5019004;28;20042;-57
2023/07/11 00:09:59;;;;;;;6.88;1.63;;;19.10;91.10;;;;;;5016754;28;20069;-56
2023/07/11 00:12:28;;;;;;;3.17;1.50;;;19.10;91.10;;;;;;5018493;28;20041;-58
2023/07/11 00:14:58;;;;;;;4.45;1.60;;;19.20;91.40;;;;;;5000813;28;20568;-58
2023/07/11 00:17:24;;;;;;;2.65;1.45;;;19.10;91.50;;;;;;5015186;28;20124;-56
2023/07/11 00:19:53;;;;;;;4.25;2.00;;;19.20;91.90;;;;;;5015724;28;20036;-58
2023/07/11 00:22:20;;;;;;;4.75;1.80;;;19.10;92.20;;;;;;5020891;28;20523;-56
2023/07/11 00:24:48;;;;;;;3.75;1.80;;;19.10;92.50;;;;;;5021790;28;20049;-57
2023/07/11 00:27:15;;;;;;;2.75;1.33;;;19.10;92.70;;;;;;5003268;28;20041;-56
2023/07/11 00:29:41;;;;;;;5.65;1.60;;;19.10;92.70;;;;;;5020054;28;20116;-56
2023/07/11 00:32:08;;;;;;;4.00;1.60;;;19.10;92.70;;;;;;5019079;28;20373;-58
2023/07/11 00:34:34;;;;;;;3.95;1.40;;;19.10;92.70;;;;;;5017427;28;20068;-57
2023/07/11 00:37:00;;;;;;;4.43;1.38;;;19.10;92.80;;;;;;5018775;28;20125;-54
2023/07/11 00:39:31;;;;;;;3.45;1.35;;;19.00;92.90;;;;;;5022267;28;20377;-58
2023/07/11 00:41:57;;;;;;;3.50;1.80;;;19.10;93.10;;;;;;5020901;28;20085;-58
2023/07/11 00:44:23;;;;;;;3.42;1.48;;;19.10;93.40;;;;;;5019733;28;20175;-58
2023/07/11 00:46:50;;;;;;;3.35;1.60;;;19.10;93.60;;;;;;5018748;28;20087;-54
2023/07/11 00:49:18;;;;;;;5.22;1.60;;;19.10;93.90;;;;;;5022245;28;20033;-57
2023/07/11 00:51:52;;;;;;;7.78;1.40;;;19.10;94.20;;;;;;5022095;28;20485;-57
2023/07/11 00:54:21;;;;;;;3.42;1.70;;;19.00;94.40;;;;;;5018662;28;20042;-56
2023/07/11 00:56:48;;;;;;;4.18;1.58;;;19.00;94.50;;;;;;5015247;28;20566;-56
2023/07/11 00:59:17;;;;;;;3.35;1.52;;;19.00;94.60;;;;;;5018104;28;20046;-58
2023/07/11 01:01:46;;;;;;;3.15;1.63;;;19.00;94.90;;;;;;5012584;28;20476;-58
2023/07/11 01:04:14;;;;;;;3.13;1.40;;;19.00;94.90;;;;;;5017840;28;20041;-56
2023/07/11 01:06:40;;;;;;;2.95;1.50;;;18.90;95.00;;;;;;5013143;28;25041;-55
2023/07/11 01:09:07;;;;;;;3.60;1.30;;;18.90;94.80;;;;;;5014355;28;20041;-56
2023/07/11 01:11:59;;;;;;;3.95;1.38;;;18.90;94.60;;;;;;5015063;28;20479;-57
2023/07/11 01:14:26;;;;;;;4.30;1.60;;;18.90;94.60;;;;;;5015076;28;20492;-56
2023/07/11 01:16:52;;;;;;;3.92;1.60;;;18.90;94.70;;;;;;5017317;28;20133;-56
2023/07/11 01:19:18;;;;;;;2.72;1.45;;;18.90;94.80;;;;;;5018822;28;20041;-57
2023/07/11 01:21:44;;;;;;;4.03;1.75;;;18.90;94.80;;;;;;4982927;28;20045;-57
2023/07/11 01:24:11;;;;;;;3.75;1.50;;;18.90;94.90;;;;;;5016141;28;20392;-58
2023/07/11 01:26:37;;;;;;;2.38;1.30;;;18.90;95.30;;;;;;5014323;28;20042;-57
2023/07/11 01:29:04;;;;;;;3.30;1.40;;;18.90;95.60;;;;;;5017232;28;20053;-57
2023/07/11 01:31:33;;;;;;;6.18;1.50;;;18.90;95.80;;;;;;5018794;28;20559;-57
2023/07/11 01:34:00;;;;;;;2.60;1.60;;;18.80;96.00;;;;;;5016931;28;20100;-58
2023/07/11 01:36:27;;;;;;;2.88;1.85;;;18.90;96.30;;;;;;5016750;28;20045;-58
2023/07/11 01:38:52;;;;;;;4.53;1.40;;;18.90;96.60;;;;;;5017614;28;20484;-56
2023/07/11 01:41:18;;;;;;;3.60;1.33;;;18.80;96.70;;;;;;5015287;28;20045;-56
2023/07/11 01:43:44;;;;;;;2.95;1.40;;;18.90;96.60;;;;;;5016173;28;20073;-57
2023/07/11 01:46:10;;;;;;;5.15;1.38;;;18.90;97.00;;;;;;5018188;28;20121;-56
2023/07/11 01:48:35;;;;;;;1.65;1.25;;;18.90;97.20;;;;;;5011096;28;20130;-56
2023/07/11 01:51:01;;;;;;;3.78;1.40;;;18.90;97.50;;;;;;5013359;28;20124;-57
2023/07/11 01:53:27;;;;;;;2.90;1.58;;;18.90;97.70;;;;;;5015583;28;20091;-57
2023/07/11 01:55:57;;;;;;;2.50;1.35;;;18.90;97.80;;;;;;5012666;28;20468;-58
2023/07/11 01:58:24;;;;;;;4.45;1.40;;;18.90;98.10;;;;;;5014357;28;20053;-57
2023/07/11 02:00:49;;;;;;;3.95;1.50;;;18.90;98.30;;;;;;5015355;28;20034;-58
2023/07/11 02:03:15;;;;;;;3.33;1.52;;;18.80;98.40;;;;;;4999242;28;20041;-57
2023/07/11 02:05:41;;;;;;;4.80;1.50;;;18.80;98.60;;;;;;5015801;28;20045;-57
2023/07/11 02:08:06;;;;;;;5.20;1.80;;;18.80;98.50;;;;;;5015972;28;20602;-54
2023/07/11 02:10:32;;;;;;;3.22;1.70;;;18.80;98.50;;;;;;5017496;28;20041;-56
2023/07/11 02:12:58;;;;;;;6.10;1.65;;;18.80;98.30;;;;;;5019806;28;20081;-57
2023/07/11 02:15:23;;;;;;;5.32;1.90;;;18.80;98.30;;;;;;5018581;28;20042;-56
2023/07/11 02:17:49;;;;;;;2.88;1.45;;;18.70;98.10;;;;;;5017294;28;20041;-56
2023/07/11 02:20:15;;;;;;;5.63;1.83;;;18.70;97.90;;;;;;5019574;28;20108;-56
2023/07/11 02:22:41;;;;;;;5.03;1.75;;;18.70;97.70;;;;;;5019943;28;20048;-58
2023/07/11 02:25:07;;;;;;;7.63;1.92;;;18.70;97.60;;;;;;5019763;28;20049;-55
2023/07/11 02:27:33;;;;;;;5.25;1.90;;;18.60;97.50;;;;;;5019277;28;20160;-57
2023/07/11 02:29:59;;;;;;;5.13;1.83;;;18.60;97.60;;;;;;5019256;28;20072;-57
2023/07/11 02:32:24;;;;;;;4.82;2.00;;;18.60;97.60;;;;;;5019665;28;20073;-57
2023/07/11 02:34:50;;;;;;;5.20;2.15;;;18.60;97.70;;;;;;5017228;28;20404;-56
2023/07/11 02:37:16;;;;;;;4.47;1.80;;;18.60;97.70;;;;;;5020717;28;20045;-57
2023/07/11 02:39:42;;;;;;;6.93;2.53;;;18.50;97.80;;;;;;5001943;28;20041;-57
2023/07/11 02:42:08;;;;;;;5.78;1.75;;;18.50;97.90;;;;;;5019293;28;20095;-57
2023/07/11 02:44:33;;;;;;;5.85;1.85;;;18.60;97.80;;;;;;5018611;28;20038;-56
2023/07/11 02:46:59;;;;;;;3.22;1.42;;;18.50;97.80;;;;;;5019564;28;20475;-57
2023/07/11 02:49:25;;;;;;;9.18;1.95;;;18.50;97.80;;;;;;5020686;28;20049;-57
2023/07/11 02:51:50;;;;;;;4.20;1.83;;;18.50;97.70;;;;;;5017258;28;20044;-57
2023/07/11 02:54:16;;;;;;;4.35;1.60;;;18.50;97.70;;;;;;5015840;28;20046;-57
2023/07/11 02:56:42;;;;;;;7.57;2.28;;;18.50;97.60;;;;;;5017480;28;20037;-56
2023/07/11 02:59:08;;;;;;;8.48;2.30;;;18.50;97.60;;;;;;5015061;28;20046;-57
2023/07/11 03:01:34;;;;;;;7.55;1.80;;;18.50;97.50;;;;;;5016032;28;20460;-57
2023/07/11 03:04:00;;;;;;;9.35;2.00;;;18.50;97.50;;;;;;4998007;28;20046;-57
2023/07/11 03:06:26;;;;;;;5.80;2.10;;;18.50;97.40;;;;;;5017134;28;20108;-57
2023/07/11 03:08:52;;;;;;;10.75;2.13;;;18.50;97.40;;;;;;5014982;28;20408;-56
2023/07/11 03:11:18;;;;;;;6.90;2.30;;;18.50;97.40;;;;;;5018565;28;20046;-57
2023/07/11 03:13:44;;;;;;;5.60;2.20;;;18.50;97.50;;;;;;5023063;28;20242;-56
2023/07/11 03:16:09;;;;;;;7.60;2.45;;;18.50;97.60;;;;;;5023178;28;20033;-57
2023/07/11 03:18:35;;;;;;;4.90;2.17;;;18.50;97.70;;;;;;5019441;28;20373;-56
2023/07/11 03:21:02;;;;;;;6.90;2.05;;;18.40;97.70;;;;;;5019337;28;20519;-57
2023/07/11 03:23:29;;;;;;;6.65;2.38;;;18.40;97.80;;;;;;5019140;28;20085;-56
2023/07/11 03:25:54;;;;;;;5.00;2.30;;;18.40;98.00;;;;;;5023528;28;20064;-57
2023/07/11 03:28:20;;;;;;;6.97;2.10;;;18.40;98.10;;;;;;5019903;28;20037;-57
2023/07/11 03:30:47;;;;;;;9.05;2.65;;;18.40;98.30;;;;;;5019635;28;20073;-57
2023/07/11 03:33:13;;;;;;;8.45;2.10;;;18.40;98.40;;;;;;5018828;28;20041;-56
2023/07/11 03:35:39;;;;;;;8.38;2.22;;;18.30;98.50;;;;;;5019046;28;20297;-55
2023/07/11 03:38:04;;;;;;;5.13;1.98;;;18.30;98.70;;;;;;5020117;28;20072;-57
2023/07/11 03:40:30;;;;;;;7.20;2.70;;;18.30;98.70;;;;;;5003504;28;20045;-56
2023/07/11 03:42:56;;;;;;;5.25;2.20;;;18.30;98.80;;;;;;5018623;28;20126;-57
2023/07/11 03:45:23;;;;;;;4.32;2.20;;;18.30;99.00;;;;;;5007219;28;20133;-58
2023/07/11 03:47:49;;;;;;;4.43;2.13;;;18.30;99.30;;;;;;5019294;28;20626;-58
2023/07/11 03:50:15;;;;;;;8.38;2.75;;;18.30;99.40;;;;;;5020556;28;20033;-57
2023/07/11 03:52:40;;;;;;;4.65;2.65;;;18.20;99.50;;;;;;5020789;28;20044;-57
2023/07/11 03:55:07;;;;;;;5.78;2.38;;;18.20;99.70;;;;;;5020981;28;20387;-58
2023/07/11 03:57:33;;;;;;;4.80;2.40;;;18.20;99.80;;;;;;5021113;28;20119;-58
2023/07/11 03:59:59;;;;;;;7.32;2.60;;;18.20;99.90;;;;;;5019018;28;20045;-57
2023/07/11 04:02:25;;;;;;;7.07;2.88;;;18.20;99.90;;;;;;5016884;28;20049;-57
2023/07/11 04:04:50;;;;;;;7.32;2.60;;;18.20;99.90;;;;;;5020967;28;20033;-55
2023/07/11 04:07:16;;;;;;;10.32;3.05;;;18.20;99.90;;;;;;5020568;28;20040;-56
2023/07/11 04:09:42;;;;;;;6.22;2.50;;;18.20;99.90;;;;;;5018813;28;20069;-57
2023/07/11 04:12:09;;;;;;;8.00;2.70;;;18.20;99.90;;;;;;5019847;28;20475;-56
2023/07/11 04:14:34;;;;;;;7.40;2.55;;;18.20;99.90;;;;;;5020182;28;20029;-56
2023/07/11 04:17:00;;;;;;;8.38;2.97;;;18.20;99.90;;;;;;5021097;28;20402;-56
2023/07/11 04:19:26;;;;;;;10.55;2.70;;;18.20;99.90;;;;;;5022100;28;20124;-57
2023/07/11 04:21:51;;;;;;;8.93;3.10;;;18.20;99.90;;;;;;5021865;28;20044;-58
2023/07/11 04:24:17;;;;;;;6.22;2.80;;;18.30;99.90;;;;;;5019913;28;20049;-57
2023/07/11 04:26:43;;;;;;;9.20;3.10;;;18.30;99.90;;;;;;5021942;28;20045;-57
2023/07/11 04:29:09;;;;;;;11.18;3.20;;;18.30;99.90;;;;;;5021691;28;20033;-57
2023/07/11 04:31:34;;;;;;;10.50;2.97;;;18.30;99.90;;;;;;5022407;28;20480;-58
2023/07/11 04:34:00;;;;;;;6.45;3.40;;;18.30;99.90;;;;;;5020247;28;20096;-56
2023/07/11 04:36:27;;;;;;;11.23;3.53;;;18.40;99.90;;;;;;5003803;28;20126;-58
2023/07/11 04:38:53;;;;;;;8.23;3.63;;;18.40;99.90;;;;;;5021180;28;20373;-55
2023/07/11 04:41:18;;;;;;;7.65;3.08;;;18.50;99.90;;;;;;5020918;28;20103;-54
2023/07/11 04:43:44;;;;;;;7.07;3.08;;;18.50;99.90;;;;;;5023204;28;20042;-56
2023/07/11 04:46:10;;;;;;;7.95;3.35;;;18.50;99.90;;;;;;5022810;28;20053;-56
2023/07/11 04:48:35;;;;;;;7.97;3.50;;;18.50;99.90;;;;;;5017705;28;20389;-56
2023/07/11 04:51:04;;;;;;;9.57;3.45;;;18.50;99.90;;;;;;5017965;28;20077;-58
2023/07/11 04:53:31;;;;;;;7.38;3.30;;;18.50;99.90;;;;;;5015010;28;20056;-57
2023/07/11 04:56:04;;;;;;;9.52;3.53;;;18.50;99.90;;;;;;5011032;28;21238;-58
2023/07/11 04:58:31;;;;;;;7.25;3.50;;;18.60;99.90;;;;;;5018114;28;20046;-57
2023/07/11 05:01:05;;;;;;;7.40;3.50;;;18.50;99.90;;;;;;5014176;28;20128;-56
2023/07/11 05:03:32;;;;;;;13.25;4.32;;;18.50;99.90;;;;;;5015721;28;20045;-57
2023/07/11 05:05:58;;;;;;;8.68;3.65;;;18.60;99.90;;;;;;5019887;28;20033;-58
2023/07/11 05:08:24;;;;;;;7.95;4.25;;;18.50;99.90;;;;;;5017198;28;20056;-55
2023/07/11 05:10:58;;;;;;;11.98;4.55;;;18.60;99.90;;;;;;5015720;28;20120;-57
2023/07/11 05:13:24;;;;;;;6.72;3.80;;;18.60;99.90;;;;;;5018590;28;20046;-56
2023/07/11 05:15:50;;;;;;;10.95;3.78;;;18.60;99.90;;;;;;5016177;28;20293;-57
2023/07/11 05:18:18;;;;;;;7.28;3.63;;;18.60;99.90;;;;;;5016613;28;20388;-57
2023/07/11 05:20:44;;;;;;;8.35;4.22;;;18.60;99.90;;;;;;5014415;28;20539;-57
2023/07/11 05:23:10;;;;;;;7.03;3.92;;;18.70;99.90;;;;;;5015809;28;20068;-57
2023/07/11 05:25:37;;;;;;;7.25;3.70;;;18.80;99.90;;;;;;4996487;28;20492;-57
2023/07/11 05:28:03;;;;;;;9.95;4.05;;;18.80;99.90;;;;;;5015189;28;20087;-57
2023/07/11 05:30:29;;;;;;;8.80;4.10;;;18.90;99.90;;;;;;5018894;28;20052;-58
2023/07/11 05:32:55;;;;;;;12.20;4.30;;;19.00;99.90;;;;;;5012758;28;20060;-57
2023/07/11 05:35:21;;;;;;;11.23;4.35;;;19.10;99.90;;;;;;5017959;28;20485;-57
2023/07/11 05:37:46;;;;;;;8.90;3.85;;;19.20;99.90;;;;;;5000589;28;20053;-54
2023/07/11 05:40:12;;;;;;;7.97;3.90;;;19.20;99.90;;;;;;5014572;28;20047;-57
2023/07/11 05:42:38;;;;;;;8.70;3.80;;;19.30;99.90;;;;;;5013014;28;20037;-56
2023/07/11 05:45:04;;;;;;;9.27;4.20;;;19.40;99.90;;;;;;5014740;28;20046;-56
2023/07/11 05:47:30;;;;;;;6.53;3.45;;;19.50;99.90;;;;;;5014227;28;20373;-58
2023/07/11 05:49:56;;;;;;;8.45;4.22;;;19.50;99.90;;;;;;5017961;28;20112;-57
2023/07/11 05:52:22;;;;;;;11.48;4.32;;;19.60;99.90;;;;;;5012605;28;20045;-57
2023/07/11 05:54:47;;;;;;;9.82;4.75;;;19.70;99.90;;;;;;5019774;28;20557;-56
2023/07/11 05:57:13;;;;;;;14.55;4.70;;;19.70;99.90;;;;;;5017623;28;20033;-59
2023/07/11 05:59:39;;;;;;;9.93;4.47;;;19.80;99.90;;;;;;5017100;28;20052;-59
2023/07/11 06:02:05;;;;;;;12.95;4.78;;;19.70;99.90;;;;;;5010965;28;20042;-59
2023/07/11 06:04:31;;;;;;;10.23;4.00;;;19.70;99.90;;;;;;5013300;28;20394;-59
2023/07/11 06:06:57;;;;;;;8.45;4.05;;;19.70;99.90;;;;;;5009496;28;20169;-60
2023/07/11 06:09:22;;;;;;;7.93;4.00;;;19.80;99.90;;;;;;5019063;28;20041;-60
2023/07/11 06:11:49;;;;;;;8.45;4.10;;;19.80;99.90;;;;;;5019078;28;20084;-59
2023/07/11 06:14:17;;;;;;;12.07;4.65;;;19.80;99.90;;;;;;5019885;28;20042;-59
2023/07/11 06:16:43;;;;;;;8.48;3.83;;;19.80;99.90;;;;;;5013689;28;20112;-58
2023/07/11 06:19:09;;;;;;;9.50;4.32;;;19.80;99.90;;;;;;5018745;28;20176;-59
2023/07/11 06:21:35;;;;;;;12.75;4.68;;;19.80;99.90;;;;;;5018878;28;20493;-60
2023/07/11 06:24:01;;;;;;;8.82;4.28;;;19.80;99.90;;;;;;5015351;28;20411;-60
2023/07/11 06:26:26;;;;;;;8.85;4.40;;;19.80;99.90;;;;;;5021294;28;20046;-59
2023/07/11 06:28:52;;;;;;;9.63;4.68;;;19.90;99.90;;;;;;5002860;28;20049;-57
2023/07/11 06:31:18;;;;;;;8.18;4.50;;;20.00;99.90;;;;;;5019204;28;20397;-59
2023/07/11 06:33:45;;;;;;;7.68;4.25;;;20.00;99.90;;;;;;5015157;28;20149;-59
2023/07/11 06:36:12;;;;;;;10.63;4.97;;;20.10;99.90;;;;;;5017348;28;20037;-59
2023/07/11 06:38:37;;;;;;;13.13;4.45;;;20.30;99.90;;;;;;5019811;28;20041;-59
2023/07/11 06:41:03;;;;;;;13.10;4.60;;;20.40;99.90;;;;;;5020993;28;20418;-57
2023/07/11 06:43:30;;;;;;;10.70;4.47;;;20.40;99.90;;;;;;5017279;28;20041;-60
2023/07/11 06:45:57;;;;;;;9.63;4.65;;;20.50;99.90;;;;;;5020049;28;20037;-59
2023/07/11 06:48:26;;;;;;;13.23;4.65;;;20.60;99.90;;;;;;5018173;28;20045;-60
2023/07/11 06:50:54;;;;;;;11.55;4.65;;;20.70;99.90;;;;;;5016095;28;20046;-59
2023/07/11 06:53:22;;;;;;;10.27;4.43;;;20.80;99.90;;;;;;5018625;28;20096;-60
2023/07/11 06:55:49;;;;;;;8.73;4.63;;;20.90;99.90;;;;;;5017054;28;20042;-59
2023/07/11 06:58:16;;;;;;;9.25;4.43;;;21.00;99.90;;;;;;5016568;28;20042;-60
2023/07/11 07:00:42;;;;;;;12.80;4.68;;;21.20;99.90;;;;;;5016457;28;20046;-60
2023/07/11 07:03:16;;;;;;;9.25;4.82;;;21.20;99.90;;;;;;5011912;28;20037;-60
2023/07/11 07:05:50;;;;;;;9.23;4.50;;;21.30;99.90;;;;;;5015418;28;20401;-60
2023/07/11 07:08:16;;;;;;;10.93;4.88;;;21.40;99.90;;;;;;5016826;28;20084;-59
2023/07/11 07:10:43;;;;;;;7.93;4.03;;;21.50;99.90;;;;;;5019118;28;20072;-59
2023/07/11 07:13:08;;;;;;;10.02;4.30;;;21.60;99.90;;;;;;5012801;28;20041;-59
2023/07/11 07:15:34;;;;;;;11.45;3.97;;;21.70;99.90;;;;;;5018496;28;20048;-59
2023/07/11 07:18:00;;;;;;;12.13;4.25;;;21.80;99.90;;;;;;5018539;28;20602;-60
2023/07/11 07:20:25;;;;;;;9.27;4.00;;;22.00;99.80;;;;;;5016774;28;20327;-60
2023/07/11 07:22:53;;;;;;;10.57;4.30;;;22.10;99.60;;;;;;5006127;28;20060;-60
2023/07/11 07:25:19;;;;;;;11.25;4.07;;;22.20;99.20;;;;;;5015999;28;20046;-59
2023/07/11 07:27:44;;;;;;;7.93;4.10;;;22.20;99.10;;;;;;5016265;28;20060;-60
2023/07/11 07:30:11;;;;;;;10.25;4.03;;;22.30;98.90;;;;;;5016832;28;20156;-60
2023/07/11 07:32:37;;;;;;;7.97;4.00;;;22.40;98.50;;;;;;5015985;28;20046;-60
2023/07/11 07:35:03;;;;;;;7.70;4.07;;;22.60;98.60;;;;;;5016806;28;20128;-60
2023/07/11 07:37:29;;;;;;;7.93;3.97;;;22.60;98.30;;;;;;5015648;28;20163;-60
2023/07/11 07:39:55;;;;;;;8.18;4.13;;;22.70;98.20;;;;;;5001924;28;20137;-60
2023/07/11 07:42:21;;;;;;;11.93;3.97;;;22.80;97.90;;;;;;5016903;28;20046;-60
2023/07/11 07:44:47;;;;;;;7.50;3.75;;;22.80;97.50;;;;;;5017113;28;20077;-57
2023/07/11 07:47:13;;;;;;;8.63;4.18;;;22.80;97.50;;;;;;4999581;28;20437;-59
2023/07/11 07:49:38;;;;;;;9.57;4.22;;;22.80;97.40;;;;;;5016649;28;20033;-59
2023/07/11 07:52:05;;;;;;;6.88;3.92;;;22.90;97.30;;;;;;4995526;28;20034;-60
2023/07/11 07:54:30;;;;;;;7.90;3.78;;;22.90;97.30;;;;;;5016916;28;20116;-59
2023/07/11 07:56:56;;;;;;;8.63;3.80;;;22.90;97.30;;;;;;5016903;28;20072;-59
2023/07/11 07:59:22;;;;;;;7.45;3.95;;;23.00;97.30;;;;;;5003710;28;20065;-60
2023/07/11 08:01:47;;;;;;;6.35;3.40;;;23.00;97.10;;;;;;5019319;28;20041;-60
2023/07/11 08:04:13;;;;;;;9.45;4.00;;;23.00;97.10;;;;;;5020842;28;20091;-60
2023/07/11 08:06:39;;;;;;;9.07;3.60;;;23.10;96.90;;;;;;5017164;28;20037;-59
2023/07/11 08:09:05;;;;;;;8.65;4.15;;;23.10;97.00;;;;;;5019664;28;20034;-60
2023/07/11 08:11:30;;;;;;;11.20;4.13;;;23.30;96.70;;;;;;5004381;28;20048;-60
2023/07/11 08:13:56;;;;;;;9.13;3.83;;;23.40;96.60;;;;;;5022105;28;20079;-61
2023/07/11 08:16:22;;;;;;;13.55;4.00;;;23.50;96.60;;;;;;5018776;28;20369;-60
2023/07/11 08:18:47;;;;;;;7.82;3.75;;;23.60;96.20;;;;;;5025112;28;20037;-64
2023/07/11 08:21:13;;;;;;;11.68;4.13;;;23.80;96.30;;;;;;5021425;28;20045;-58
2023/07/11 08:23:39;;;;;;;9.77;3.95;;;23.90;96.10;;;;;;5021383;28;20049;-58
2023/07/11 08:26:04;;;;;;;8.45;3.60;;;23.90;95.90;;;;;;5022852;28;20045;-57
2023/07/11 08:28:30;;;;;;;7.60;3.42;;;24.00;95.80;;;;;;5022273;28;20040;-58
2023/07/11 08:30:56;;;;;;;11.43;3.88;;;24.00;95.70;;;;;;4987301;28;20686;-58
2023/07/11 08:33:22;;;;;;;5.38;3.50;;;24.00;95.30;;;;;;5002399;28;20128;-58
2023/07/11 08:35:47;;;;;;;7.68;3.15;;;24.00;95.00;;;;;;5021789;28;20400;-59
2023/07/11 08:38:13;;;;;;;7.85;3.15;;;24.00;94.90;;;;;;5022732;28;20053;-58
2023/07/11 08:40:42;;;;;;;9.02;3.38;;;24.00;94.40;;;;;;5021484;28;20369;-59
2023/07/11 08:43:16;;;;;;;11.82;3.05;;;23.90;94.30;;;;;;5021020;28;20046;-58
2023/07/11 08:45:57;;;;;;;9.27;3.10;;;23.90;93.80;;;;;;5022370;28;20033;-58
2023/07/11 08:48:57;;;;;;;8.40;3.20;;;23.90;93.60;;;;;;5019685;28;20042;-58
2023/07/11 08:51:38;;;;;;;10.43;2.88;;;24.00;93.60;;;;;;4995986;28;20067;-58
2023/07/11 08:54:13;;;;;;;6.70;3.13;;;24.30;93.60;;;;;;5021228;28;20472;-58
2023/07/11 08:56:45;;;;;;;10.98;3.20;;;24.50;93.10;;;;;;5021780;28;20097;-58
2023/07/11 08:59:25;;;;;;;7.82;2.90;;;24.70;92.50;;;;;;5022253;28;20046;-58
2023/07/11 09:02:10;;;;;;;6.68;3.10;;;24.80;92.30;;;;;;5003688;28;20064;-56
2023/07/11 09:04:53;;;;;;;11.18;3.22;;;25.00;92.00;;;;;;5019189;28;20045;-59
2023/07/11 09:07:41;;;;;;;8.43;3.03;;;25.20;92.20;;;;;;5018847;28;20445;-59
2023/07/11 09:10:56;;;;;;;9.93;3.30;;;25.30;91.80;;;;;;5020517;28;20046;-57
2023/07/11 09:13:24;;;;;;;7.57;3.20;;;25.50;91.40;;;;;;5016095;28;20523;-58
2023/07/11 09:16:06;;;;;;;6.20;2.72;;;25.60;90.90;;;;;;5019012;28;20056;-57
2023/07/11 09:18:53;;;;;;;7.70;3.03;;;25.80;90.00;;;;;;5020188;28;20408;-57
2023/07/11 09:21:50;;;;;;;6.03;2.55;;;25.90;87.90;;;;;;5020129;28;20304;-57
2023/07/11 09:24:36;;;;;;;7.22;2.83;;;25.90;86.30;;;;;;5020062;28;20069;-59
2023/07/11 09:27:11;;;;;;;6.47;2.28;;;25.90;86.40;;;;;;5021940;28;20072;-59
2023/07/11 09:29:37;;;;;;;6.53;2.10;;;26.10;84.80;;;;;;5020493;28;20092;-58
2023/07/11 09:32:04;;;;;;;5.68;2.10;;;26.30;84.80;;;;;;5019854;28;20073;-58
2023/07/11 09:34:45;;;;;;;9.35;2.10;;;26.50;83.80;;;;;;5020562;28;20041;-59
2023/07/11 09:37:26;;;;;;;4.85;2.20;;;26.60;83.30;;;;;;5019491;28;20042;-58
2023/07/11 09:40:35;;;;;;;8.70;2.38;;;26.80;82.60;;;;;;5019783;28;20037;-58
2023/07/11 09:43:03;;;;;;;7.05;2.25;;;27.00;81.30;;;;;;4998844;28;20045;-59
2023/07/11 09:45:37;;;;;;;5.25;2.38;;;27.10;80.20;;;;;;5003224;28;20778;-58
2023/07/11 09:48:14;;;;;;;5.18;2.50;;;27.20;80.40;;;;;;5020034;28;20473;-59
2023/07/11 09:51:00;;;;;;;8.68;2.05;;;27.40;79.30;;;;;;5020469;28;20107;-58
2023/07/11 09:53:28;;;;;;;11.60;2.33;;;27.60;80.40;;;;;;5020255;28;20041;-59
2023/07/11 09:55:57;;;;;;;6.63;2.28;;;27.80;79.00;;;;;;5019294;28;20046;-58
2023/07/11 09:58:23;;;;;;;3.88;1.90;;;28.00;79.30;;;;;;5019382;28;20061;-59
2023/07/11 10:00:51;;;;;;;7.10;2.03;;;28.10;76.40;;;;;;5020481;28;20491;-59
2023/07/11 10:03:25;;;;;;;7.13;2.20;;;28.10;77.10;;;;;;5017594;28;20048;-59
2023/07/11 10:05:52;;;;;;;8.10;2.20;;;28.20;75.70;;;;;;5019527;28;20038;-58
2023/07/11 10:08:20;;;;;;;7.15;2.28;;;28.30;75.00;;;;;;5002849;28;20042;-59
2023/07/11 10:10:48;;;;;;;8.13;2.65;;;28.40;74.60;;;;;;5020366;28;20059;-58
2023/07/11 10:13:15;;;;;;;5.47;2.15;;;28.50;74.90;;;;;;5019010;28;20041;-58
2023/07/11 10:15:42;;;;;;;9.27;2.03;;;28.60;74.30;;;;;;5020038;28;20534;-59
2023/07/11 10:18:31;;;;;;;5.68;2.15;;;28.70;74.60;;;;;;5020868;28;20409;-59
2023/07/11 10:21:12;;;;;;;10.55;2.50;;;28.80;74.40;;;;;;5020029;28;20064;-58
2023/07/11 10:23:41;;;;;;;7.28;2.35;;;28.70;71.90;;;;;;5018258;28;20061;-58
2023/07/11 10:26:19;;;;;;;4.18;1.60;;;28.50;71.90;;;;;;5020375;28;20054;-59
2023/07/11 10:28:55;;;;;;;8.63;2.70;;;28.30;71.40;;;;;;5020448;28;20112;-58
2023/07/11 10:31:26;;;;;;;8.00;2.15;;;28.30;72.60;;;;;;5019462;28;20042;-58
2023/07/11 10:33:54;;;;;;;8.88;2.03;;;28.30;72.10;;;;;;5019475;28;20038;-59
2023/07/11 10:36:26;;;;;;;7.90;2.25;;;28.30;71.00;;;;;;5019457;28;20076;-59
2023/07/11 10:39:14;;;;;;;9.82;2.10;;;28.40;71.90;;;;;;5009180;28;20052;-59
2023/07/11 10:42:03;;;;;;;5.20;2.08;;;28.40;71.20;;;;;;5019282;28;20038;-59
2023/07/11 10:44:34;;;;;;;7.18;2.60;;;28.40;71.10;;;;;;5020854;28;20041;-58
2023/07/11 10:47:02;;;;;;;11.13;2.35;;;28.40;70.80;;;;;;5018805;28;20069;-58
2023/07/11 10:49:42;;;;;;;5.32;2.05;;;28.40;72.50;;;;;;5019376;28;20041;-59
2023/07/11 10:52:27;;;;;;;7.47;2.25;;;28.50;71.90;;;;;;5018639;28;20033;-58
2023/07/11 10:55:16;;;;;;;7.00;2.22;;;28.60;72.00;;;;;;5019182;28;20116;-59
2023/07/11 10:57:50;;;;;;;6.80;2.10;;;28.70;72.40;;;;;;5018090;28;20046;-59
2023/07/11 11:00:21;;;;;;;6.53;2.40;;;28.80;72.40;;;;;;5021406;28;20049;-59
2023/07/11 11:02:47;;;;;;;7.93;2.40;;;28.80;71.70;;;;;;5016782;28;20038;-59
2023/07/11 11:06:01;;;;;;;5.30;2.30;;;28.80;71.00;;;;;;5000901;28;20038;-59
2023/07/11 11:08:40;;;;;;;7.95;2.60;;;28.80;71.50;;;;;;4978522;28;20494;-58
2023/07/11 11:11:24;;;;;;;7.95;2.05;;;28.90;71.80;;;;;;4977223;28;20542;-59
2023/07/11 11:14:18;;;;;;;8.43;2.10;;;29.00;68.80;;;;;;5008167;28;20138;-59
2023/07/11 11:16:59;;;;;;;5.47;2.20;;;29.20;69.20;;;;;;5000487;28;20080;-59
2023/07/11 11:19:34;;;;;;;17.45;2.67;;;29.30;68.20;;;;;;5018760;28;20125;-59
2023/07/11 11:22:33;;;;;;;7.43;2.10;;;29.40;68.60;;;;;;5017318;28;20083;-59
2023/07/11 11:25:01;;;;;;;5.53;2.17;;;29.60;69.00;;;;;;5018662;28;20961;-59
2023/07/11 11:27:46;;;;;;;7.00;2.30;;;29.80;68.40;;;;;;4984838;28;20054;-59
2023/07/11 11:30:35;;;;;;;4.95;2.50;;;30.00;69.10;;;;;;5020329;28;20056;-59
2023/07/11 11:33:39;;;;;;;6.97;2.40;;;30.10;67.70;;;;;;5021718;28;20126;-57
2023/07/11 11:36:39;;;;;;;6.93;2.42;;;30.10;67.30;;;;;;4978805;28;20050;-58
2023/07/11 11:39:29;;;;;;;7.10;2.38;;;30.10;67.90;;;;;;4977591;28;20038;-59
2023/07/11 11:42:00;;;;;;;4.15;2.38;;;30.10;68.20;;;;;;5015675;28;20048;-59
2023/07/11 11:44:50;;;;;;;5.38;2.40;;;30.20;67.60;;;;;;5024091;28;20503;-59
2023/07/11 11:47:17;;;;;;;7.13;2.30;;;30.30;66.80;;;;;;5022124;28;20176;-59
2023/07/11 11:49:44;;;;;;;10.25;2.67;;;30.30;66.70;;;;;;5022239;28;20037;-59
2023/07/11 11:52:10;;;;;;;7.65;2.47;;;30.40;66.60;;;;;;5022055;28;20042;-58
2023/07/11 11:54:44;;;;;;;5.90;2.67;;;30.40;66.50;;;;;;5019269;28;20041;-59
2023/07/11 11:57:32;;;;;;;7.15;2.55;;;30.40;66.50;;;;;;5022280;28;20041;-59
2023/07/11 11:59:59;;;;;;;10.75;2.25;;;30.50;66.70;;;;;;5022437;28;20068;-59
2023/07/11 12:02:39;;;;;;;4.25;2.30;;;30.50;66.00;;;;;;5021073;28;20040;-59
2023/07/11 12:05:20;;;;;;;7.95;2.42;;;30.60;66.40;;;;;;5021797;28;20121;-59
2023/07/11 12:08:24;;;;;;;5.82;2.20;;;30.50;66.10;;;;;;5017654;28;20048;-59
2023/07/11 12:11:08;;;;;;;5.32;2.35;;;30.50;65.70;;;;;;5021687;28;20146;-59
2023/07/11 12:13:35;;;;;;;4.47;2.10;;;30.30;65.70;;;;;;5020655;28;20052;-59
2023/07/11 12:16:17;;;;;;;6.32;2.50;;;30.10;67.10;;;;;;5021840;28;20124;-58
2023/07/11 12:18:50;;;;;;;4.15;2.15;;;30.10;67.20;;;;;;5021499;28;20164;-59
2023/07/11 12:21:29;;;;;;;6.22;2.47;;;30.00;66.20;;;;;;5020967;28;20041;-58
2023/07/11 12:24:22;;;;;;;7.45;2.05;;;29.90;65.50;;;;;;5020044;28;20507;-57
2023/07/11 12:26:51;;;;;;;12.93;2.78;;;29.80;65.90;;;;;;5021031;28;20045;-58
2023/07/11 12:29:48;;;;;;;13.23;2.78;;;29.80;65.90;;;;;;5023484;28;20072;-58
2023/07/11 12:32:32;;;;;;;6.95;2.45;;;30.00;66.80;;;;;;5018572;28;20041;-58
2023/07/11 12:35:04;;;;;;;7.90;2.70;;;30.20;66.80;;;;;;5021787;28;20037;-59
2023/07/11 12:37:40;;;;;;;6.78;2.88;;;30.40;65.90;;;;;;5019019;28;20076;-58
2023/07/11 12:40:48;;;;;;;8.65;3.03;;;30.40;64.90;;;;;;5020835;28;20132;-58
2023/07/11 12:43:23;;;;;;;4.80;2.45;;;30.10;64.90;;;;;;4998400;28;20564;-57
2023/07/11 12:46:03;;;;;;;8.07;2.83;;;29.90;66.40;;;;;;5023120;28;20103;-57
2023/07/11 12:48:36;;;;;;;8.02;2.40;;;29.70;66.00;;;;;;5005650;28;20398;-57
2023/07/11 12:51:27;;;;;;;8.05;2.80;;;29.70;66.10;;;;;;5020990;28;20137;-58
2023/07/11 12:54:12;;;;;;;9.77;2.80;;;29.70;66.90;;;;;;5021838;28;20077;-56
2023/07/11 12:56:43;;;;;;;11.35;2.95;;;29.80;67.70;;;;;;5017646;28;20045;-58
2023/07/11 12:59:23;;;;;;;13.02;2.92;;;29.80;66.60;;;;;;5020161;28;20404;-56
2023/07/11 13:01:51;;;;;;;10.57;3.33;;;29.90;66.80;;;;;;5019117;28;20045;-56